Stewiacke, Canada
Current Conditions -  °F | °C
As of 10:00 AM on Thursday 29 Jan 2015 (Local Time) from CYHZ Reporting Station
Few Clouds Few Clouds  
Wind Chill:   Ceiling: Unl
Heat Index: 14°   Visibility: 15mi
Dew Point:   Wind: 7mph
Humidity: 79%   Direction: 360°N
Pressure: 30.2"   Gusts: NA
Location:  45.13°N, 63.35°W
Report Text: CYHZ 291400Z 36006KT 15SM FEW009 M10/M13 A3020 RMK SF1 SLP235
Loading
Personal Weather Stations






























Interactive Weather Map New forecast layout! Learn more

10-Day Weather Forecast

Advertisements
Track Severe Weather on mobile